sensor_id;sensor_type;location;lat;lon;timestamp;P1;durP1;ratioP1;P2;durP2;ratioP2
76310;SDS011;65120;59.304;18.294;2023-03-11T00:01:42;5.75;;;2.20;;
76310;SDS011;65120;59.304;18.294;2023-03-11T00:04:09;6.22;;;1.63;;
76310;SDS011;65120;59.304;18.294;2023-03-11T00:06:37;5.65;;;1.88;;
76310;SDS011;65120;59.304;18.294;2023-03-11T00:09:04;4.38;;;1.95;;
76310;SDS011;65120;59.304;18.294;2023-03-11T00:11:31;6.00;;;1.73;;
76310;SDS011;65120;59.304;18.294;2023-03-11T00:13:58;6.18;;;2.03;;
76310;SDS011;65120;59.304;18.294;2023-03-11T00:16:25;7.55;;;1.85;;
76310;SDS011;65120;59.304;18.294;2023-03-11T00:18:53;4.93;;;2.03;;
76310;SDS011;65120;59.304;18.294;2023-03-11T00:21:20;3.90;;;1.52;;
76310;SDS011;65120;59.304;18.294;2023-03-11T00:23:47;5.13;;;1.50;;
76310;SDS011;65120;59.304;18.294;2023-03-11T00:26:14;4.18;;;1.30;;
76310;SDS011;65120;59.304;18.294;2023-03-11T00:28:41;5.95;;;1.52;;
76310;SDS011;65120;59.304;18.294;2023-03-11T00:31:09;8.18;;;1.83;;
76310;SDS011;65120;59.304;18.294;2023-03-11T00:33:37;5.60;;;1.65;;
76310;SDS011;65120;59.304;18.294;2023-03-11T00:36:06;2.97;;;1.17;;
76310;SDS011;65120;59.304;18.294;2023-03-11T00:38:33;6.25;;;1.65;;
76310;SDS011;65120;59.304;18.294;2023-03-11T00:41:00;2.25;;;1.35;;
76310;SDS011;65120;59.304;18.294;2023-03-11T00:43:27;4.13;;;1.30;;
76310;SDS011;65120;59.304;18.294;2023-03-11T00:45:54;2.90;;;0.98;;
76310;SDS011;65120;59.304;18.294;2023-03-11T00:48:21;4.28;;;1.38;;
76310;SDS011;65120;59.304;18.294;2023-03-11T00:50:48;4.15;;;1.48;;
76310;SDS011;65120;59.304;18.294;2023-03-11T00:53:16;3.67;;;1.30;;
76310;SDS011;65120;59.304;18.294;2023-03-11T00:55:43;6.88;;;1.60;;
76310;SDS011;65120;59.304;18.294;2023-03-11T00:58:10;8.05;;;1.88;;
76310;SDS011;65120;59.304;18.294;2023-03-11T01:00:38;3.08;;;1.38;;
76310;SDS011;65120;59.304;18.294;2023-03-11T01:03:05;3.80;;;1.30;;
76310;SDS011;65120;59.304;18.294;2023-03-11T01:05:32;5.25;;;2.00;;
76310;SDS011;65120;59.304;18.294;2023-03-11T01:08:00;6.70;;;1.63;;
76310;SDS011;65120;59.304;18.294;2023-03-11T01:10:29;3.50;;;1.42;;
76310;SDS011;65120;59.304;18.294;2023-03-11T01:12:56;4.25;;;1.38;;
76310;SDS011;65120;59.304;18.294;2023-03-11T01:15:24;3.15;;;1.00;;
76310;SDS011;65120;59.304;18.294;2023-03-11T01:17:53;4.13;;;1.48;;
76310;SDS011;65120;59.304;18.294;2023-03-11T01:20:20;2.28;;;1.20;;
76310;SDS011;65120;59.304;18.294;2023-03-11T01:22:48;5.00;;;1.20;;
76310;SDS011;65120;59.304;18.294;2023-03-11T01:25:15;3.70;;;1.30;;
76310;SDS011;65120;59.304;18.294;2023-03-11T01:27:45;3.65;;;1.77;;
76310;SDS011;65120;59.304;18.294;2023-03-11T01:30:13;4.55;;;1.17;;
76310;SDS011;65120;59.304;18.294;2023-03-11T01:32:43;3.28;;;1.05;;
76310;SDS011;65120;59.304;18.294;2023-03-11T01:35:11;4.28;;;1.80;;
76310;SDS011;65120;59.304;18.294;2023-03-11T01:37:39;6.70;;;1.77;;
76310;SDS011;65120;59.304;18.294;2023-03-11T01:40:07;3.88;;;1.40;;
76310;SDS011;65120;59.304;18.294;2023-03-11T01:42:40;4.22;;;1.40;;
76310;SDS011;65120;59.304;18.294;2023-03-11T01:45:14;4.15;;;1.40;;
76310;SDS011;65120;59.304;18.294;2023-03-11T01:47:58;7.18;;;1.60;;
76310;SDS011;65120;59.304;18.294;2023-03-11T01:50:26;3.33;;;1.13;;
76310;SDS011;65120;59.304;18.294;2023-03-11T01:52:56;2.03;;;1.10;;
76310;SDS011;65120;59.304;18.294;2023-03-11T01:55:23;9.52;;;2.20;;
76310;SDS011;65120;59.304;18.294;2023-03-11T01:57:50;4.00;;;1.50;;
76310;SDS011;65120;59.304;18.294;2023-03-11T02:00:20;7.07;;;2.05;;
76310;SDS011;65120;59.304;18.294;2023-03-11T02:02:48;4.18;;;1.58;;
76310;SDS011;65120;59.304;18.294;2023-03-11T02:05:17;6.38;;;2.88;;
76310;SDS011;65120;59.304;18.294;2023-03-11T02:07:46;6.05;;;1.85;;
76310;SDS011;65120;59.304;18.294;2023-03-11T02:10:15;6.88;;;1.95;;
76310;SDS011;65120;59.304;18.294;2023-03-11T02:12:42;6.03;;;1.90;;
76310;SDS011;65120;59.304;18.294;2023-03-11T02:15:11;6.65;;;2.08;;
76310;SDS011;65120;59.304;18.294;2023-03-11T02:17:40;7.07;;;1.67;;
76310;SDS011;65120;59.304;18.294;2023-03-11T02:20:11;5.18;;;1.67;;
76310;SDS011;65120;59.304;18.294;2023-03-11T02:22:44;3.60;;;1.67;;
76310;SDS011;65120;59.304;18.294;2023-03-11T02:25:15;4.75;;;1.77;;
76310;SDS011;65120;59.304;18.294;2023-03-11T02:27:51;9.98;;;1.55;;
76310;SDS011;65120;59.304;18.294;2023-03-11T02:30:19;4.95;;;1.67;;
76310;SDS011;65120;59.304;18.294;2023-03-11T02:32:48;8.60;;;2.10;;
76310;SDS011;65120;59.304;18.294;2023-03-11T02:35:15;5.05;;;1.60;;
76310;SDS011;65120;59.304;18.294;2023-03-11T02:37:43;7.93;;;1.95;;
76310;SDS011;65120;59.304;18.294;2023-03-11T02:43:04;6.28;;;1.40;;
76310;SDS011;65120;59.304;18.294;2023-03-11T02:45:34;4.68;;;2.47;;
76310;SDS011;65120;59.304;18.294;2023-03-11T02:48:04;11.82;;;2.67;;
76310;SDS011;65120;59.304;18.294;2023-03-11T02:50:34;7.25;;;2.45;;
76310;SDS011;65120;59.304;18.294;2023-03-11T02:53:02;8.57;;;1.58;;
76310;SDS011;65120;59.304;18.294;2023-03-11T02:55:30;6.68;;;1.88;;
76310;SDS011;65120;59.304;18.294;2023-03-11T02:57:57;5.82;;;1.48;;
76310;SDS011;65120;59.304;18.294;2023-03-11T03:00:26;6.00;;;1.88;;
76310;SDS011;65120;59.304;18.294;2023-03-11T03:02:53;4.80;;;1.70;;
76310;SDS011;65120;59.304;18.294;2023-03-11T03:05:20;5.25;;;1.83;;
76310;SDS011;65120;59.304;18.294;2023-03-11T03:07:48;4.03;;;1.67;;
76310;SDS011;65120;59.304;18.294;2023-03-11T03:10:16;5.72;;;1.60;;
76310;SDS011;65120;59.304;18.294;2023-03-11T03:12:44;5.78;;;1.77;;
76310;SDS011;65120;59.304;18.294;2023-03-11T03:15:12;3.90;;;1.67;;
76310;SDS011;65120;59.304;18.294;2023-03-11T03:17:41;5.03;;;1.52;;
76310;SDS011;65120;59.304;18.294;2023-03-11T03:20:09;3.85;;;1.73;;
76310;SDS011;65120;59.304;18.294;2023-03-11T03:22:37;7.30;;;1.85;;
76310;SDS011;65120;59.304;18.294;2023-03-11T03:25:05;3.95;;;2.15;;
76310;SDS011;65120;59.304;18.294;2023-03-11T03:27:33;5.60;;;2.50;;
76310;SDS011;65120;59.304;18.294;2023-03-11T03:30:00;6.82;;;1.75;;
76310;SDS011;65120;59.304;18.294;2023-03-11T03:32:27;5.90;;;1.80;;
76310;SDS011;65120;59.304;18.294;2023-03-11T03:34:56;5.45;;;1.70;;
76310;SDS011;65120;59.304;18.294;2023-03-11T03:37:24;6.20;;;2.08;;
76310;SDS011;65120;59.304;18.294;2023-03-11T03:39:51;3.67;;;1.48;;
76310;SDS011;65120;59.304;18.294;2023-03-11T03:42:18;6.15;;;2.10;;
76310;SDS011;65120;59.304;18.294;2023-03-11T03:44:46;3.88;;;1.52;;
76310;SDS011;65120;59.304;18.294;2023-03-11T03:47:12;8.82;;;2.30;;
76310;SDS011;65120;59.304;18.294;2023-03-11T03:49:39;5.80;;;1.70;;
76310;SDS011;65120;59.304;18.294;2023-03-11T03:52:08;3.50;;;1.35;;
76310;SDS011;65120;59.304;18.294;2023-03-11T03:54:35;4.55;;;1.70;;
76310;SDS011;65120;59.304;18.294;2023-03-11T03:57:02;5.88;;;1.90;;
76310;SDS011;65120;59.304;18.294;2023-03-11T03:59:29;5.78;;;1.30;;
76310;SDS011;65120;59.304;18.294;2023-03-11T04:01:56;3.13;;;1.27;;
76310;SDS011;65120;59.304;18.294;2023-03-11T04:04:23;6.20;;;1.27;;
76310;SDS011;65120;59.304;18.294;2023-03-11T04:06:50;5.18;;;1.90;;
76310;SDS011;65120;59.304;18.294;2023-03-11T04:09:18;4.53;;;1.52;;
76310;SDS011;65120;59.304;18.294;2023-03-11T04:11:46;3.92;;;0.88;;
76310;SDS011;65120;59.304;18.294;2023-03-11T04:14:13;3.08;;;0.73;;
76310;SDS011;65120;59.304;18.294;2023-03-11T04:16:40;2.15;;;0.63;;
76310;SDS011;65120;59.304;18.294;2023-03-11T04:19:07;4.43;;;1.20;;
76310;SDS011;65120;59.304;18.294;2023-03-11T04:21:34;2.35;;;0.52;;
76310;SDS011;65120;59.304;18.294;2023-03-11T04:24:01;5.82;;;1.02;;
76310;SDS011;65120;59.304;18.294;2023-03-11T04:26:29;3.85;;;1.40;;
76310;SDS011;65120;59.304;18.294;2023-03-11T04:28:56;0.88;;;0.45;;
76310;SDS011;65120;59.304;18.294;2023-03-11T04:31:23;3.95;;;0.82;;
76310;SDS011;65120;59.304;18.294;2023-03-11T04:33:50;3.00;;;0.80;;
76310;SDS011;65120;59.304;18.294;2023-03-11T04:36:17;1.58;;;0.50;;
76310;SDS011;65120;59.304;18.294;2023-03-11T04:38:44;4.18;;;0.80;;
76310;SDS011;65120;59.304;18.294;2023-03-11T04:41:11;8.02;;;1.23;;
76310;SDS011;65120;59.304;18.294;2023-03-11T04:43:39;1.63;;;0.47;;
76310;SDS011;65120;59.304;18.294;2023-03-11T04:46:06;2.72;;;0.60;;
76310;SDS011;65120;59.304;18.294;2023-03-11T04:48:33;3.00;;;0.50;;
76310;SDS011;65120;59.304;18.294;2023-03-11T04:50:59;8.90;;;0.75;;
76310;SDS011;65120;59.304;18.294;2023-03-11T04:53:26;0.98;;;0.50;;
76310;SDS011;65120;59.304;18.294;2023-03-11T04:55:53;0.50;;;0.30;;
76310;SDS011;65120;59.304;18.294;2023-03-11T04:58:20;5.40;;;0.55;;
76310;SDS011;65120;59.304;18.294;2023-03-11T05:00:48;1.80;;;0.50;;
76310;SDS011;65120;59.304;18.294;2023-03-11T05:03:15;0.63;;;0.47;;
76310;SDS011;65120;59.304;18.294;2023-03-11T05:05:43;4.95;;;0.43;;
76310;SDS011;65120;59.304;18.294;2023-03-11T05:08:10;0.93;;;0.40;;
76310;SDS011;65120;59.304;18.294;2023-03-11T05:10:38;4.28;;;0.55;;
76310;SDS011;65120;59.304;18.294;2023-03-11T05:13:06;4.40;;;0.65;;
76310;SDS011;65120;59.304;18.294;2023-03-11T05:15:33;1.38;;;0.40;;
76310;SDS011;65120;59.304;18.294;2023-03-11T05:18:02;1.08;;;0.38;;
76310;SDS011;65120;59.304;18.294;2023-03-11T05:20:29;3.42;;;0.43;;
76310;SDS011;65120;59.304;18.294;2023-03-11T05:22:56;1.55;;;0.45;;
76310;SDS011;65120;59.304;18.294;2023-03-11T05:25:23;1.20;;;0.50;;
76310;SDS011;65120;59.304;18.294;2023-03-11T05:27:50;1.85;;;0.50;;
76310;SDS011;65120;59.304;18.294;2023-03-11T05:30:17;0.77;;;0.30;;
76310;SDS011;65120;59.304;18.294;2023-03-11T05:32:44;2.40;;;0.30;;
76310;SDS011;65120;59.304;18.294;2023-03-11T05:35:12;2.78;;;0.40;;
76310;SDS011;65120;59.304;18.294;2023-03-11T05:37:39;1.75;;;0.30;;
76310;SDS011;65120;59.304;18.294;2023-03-11T05:40:06;0.90;;;0.30;;
76310;SDS011;65120;59.304;18.294;2023-03-11T05:42:35;1.33;;;0.30;;
76310;SDS011;65120;59.304;18.294;2023-03-11T05:45:02;3.63;;;0.50;;
76310;SDS011;65120;59.304;18.294;2023-03-11T05:47:29;0.52;;;0.30;;
76310;SDS011;65120;59.304;18.294;2023-03-11T05:49:56;3.03;;;0.40;;
76310;SDS011;65120;59.304;18.294;2023-03-11T05:52:25;1.30;;;0.40;;
76310;SDS011;65120;59.304;18.294;2023-03-11T05:54:52;3.55;;;0.40;;
76310;SDS011;65120;59.304;18.294;2023-03-11T05:57:19;2.80;;;0.30;;
76310;SDS011;65120;59.304;18.294;2023-03-11T05:59:45;4.45;;;0.40;;
76310;SDS011;65120;59.304;18.294;2023-03-11T06:02:12;0.52;;;0.30;;
76310;SDS011;65120;59.304;18.294;2023-03-11T06:04:39;0.50;;;0.30;;
76310;SDS011;65120;59.304;18.294;2023-03-11T06:07:06;3.17;;;0.63;;
76310;SDS011;65120;59.304;18.294;2023-03-11T06:09:34;1.70;;;0.50;;
76310;SDS011;65120;59.304;18.294;2023-03-11T06:12:02;0.52;;;0.25;;
76310;SDS011;65120;59.304;18.294;2023-03-11T06:14:29;1.25;;;0.75;;
76310;SDS011;65120;59.304;18.294;2023-03-11T06:16:57;1.10;;;0.30;;
76310;SDS011;65120;59.304;18.294;2023-03-11T06:19:24;1.88;;;0.35;;
76310;SDS011;65120;59.304;18.294;2023-03-11T06:21:51;0.90;;;0.40;;
76310;SDS011;65120;59.304;18.294;2023-03-11T06:24:20;1.45;;;0.30;;
76310;SDS011;65120;59.304;18.294;2023-03-11T06:26:51;1.95;;;0.22;;
76310;SDS011;65120;59.304;18.294;2023-03-11T06:29:18;2.05;;;0.60;;
76310;SDS011;65120;59.304;18.294;2023-03-11T06:31:46;0.95;;;0.22;;
76310;SDS011;65120;59.304;18.294;2023-03-11T06:34:12;1.27;;;0.47;;
76310;SDS011;65120;59.304;18.294;2023-03-11T06:36:39;0.40;;;0.30;;
76310;SDS011;65120;59.304;18.294;2023-03-11T06:39:06;1.00;;;0.20;;
76310;SDS011;65120;59.304;18.294;2023-03-11T06:41:33;2.28;;;0.30;;
76310;SDS011;65120;59.304;18.294;2023-03-11T06:44:02;3.85;;;0.40;;
76310;SDS011;65120;59.304;18.294;2023-03-11T06:46:29;1.92;;;0.50;;
76310;SDS011;65120;59.304;18.294;2023-03-11T06:48:56;1.25;;;0.30;;
76310;SDS011;65120;59.304;18.294;2023-03-11T06:51:23;3.20;;;0.30;;
76310;SDS011;65120;59.304;18.294;2023-03-11T06:53:50;1.05;;;0.30;;
76310;SDS011;65120;59.304;18.294;2023-03-11T06:56:18;1.33;;;0.35;;
76310;SDS011;65120;59.304;18.294;2023-03-11T06:58:46;1.10;;;0.22;;
76310;SDS011;65120;59.304;18.294;2023-03-11T07:01:14;0.60;;;0.45;;
76310;SDS011;65120;59.304;18.294;2023-03-11T07:03:44;3.92;;;0.40;;
76310;SDS011;65120;59.304;18.294;2023-03-11T07:06:12;0.80;;;0.50;;
76310;SDS011;65120;59.304;18.294;2023-03-11T07:08:42;0.68;;;0.30;;
76310;SDS011;65120;59.304;18.294;2023-03-11T07:11:11;1.25;;;0.30;;
76310;SDS011;65120;59.304;18.294;2023-03-11T07:13:39;0.82;;;0.30;;
76310;SDS011;65120;59.304;18.294;2023-03-11T07:16:07;3.45;;;0.30;;
76310;SDS011;65120;59.304;18.294;2023-03-11T07:18:37;1.00;;;0.30;;
76310;SDS011;65120;59.304;18.294;2023-03-11T07:21:05;0.90;;;0.28;;
76310;SDS011;65120;59.304;18.294;2023-03-11T07:23:33;4.18;;;0.43;;
76310;SDS011;65120;59.304;18.294;2023-03-11T07:26:00;2.88;;;0.65;;
76310;SDS011;65120;59.304;18.294;2023-03-11T07:28:27;1.08;;;0.30;;
76310;SDS011;65120;59.304;18.294;2023-03-11T07:30:54;0.90;;;0.40;;
76310;SDS011;65120;59.304;18.294;2023-03-11T07:33:22;1.50;;;0.20;;
76310;SDS011;65120;59.304;18.294;2023-03-11T07:35:50;1.85;;;0.35;;
76310;SDS011;65120;59.304;18.294;2023-03-11T07:38:17;2.47;;;0.35;;
76310;SDS011;65120;59.304;18.294;2023-03-11T07:40:44;1.27;;;0.43;;
76310;SDS011;65120;59.304;18.294;2023-03-11T07:43:11;2.15;;;0.40;;
76310;SDS011;65120;59.304;18.294;2023-03-11T07:45:38;1.23;;;0.35;;
76310;SDS011;65120;59.304;18.294;2023-03-11T07:48:05;1.73;;;0.30;;
76310;SDS011;65120;59.304;18.294;2023-03-11T07:50:32;3.35;;;0.25;;
76310;SDS011;65120;59.304;18.294;2023-03-11T07:53:00;2.35;;;0.35;;
76310;SDS011;65120;59.304;18.294;2023-03-11T07:55:27;0.50;;;0.30;;
76310;SDS011;65120;59.304;18.294;2023-03-11T07:57:54;1.95;;;0.40;;
76310;SDS011;65120;59.304;18.294;2023-03-11T08:00:21;4.38;;;0.30;;
76310;SDS011;65120;59.304;18.294;2023-03-11T08:02:48;1.98;;;0.30;;
76310;SDS011;65120;59.304;18.294;2023-03-11T08:05:15;3.78;;;0.40;;
76310;SDS011;65120;59.304;18.294;2023-03-11T08:07:44;5.18;;;0.38;;
76310;SDS011;65120;59.304;18.294;2023-03-11T08:10:13;1.38;;;0.40;;
76310;SDS011;65120;59.304;18.294;2023-03-11T08:12:40;2.33;;;0.47;;
76310;SDS011;65120;59.304;18.294;2023-03-11T08:15:07;1.33;;;0.35;;
76310;SDS011;65120;59.304;18.294;2023-03-11T08:17:35;0.77;;;0.30;;
76310;SDS011;65120;59.304;18.294;2023-03-11T08:20:02;2.03;;;0.35;;
76310;SDS011;65120;59.304;18.294;2023-03-11T08:22:32;1.58;;;0.40;;
76310;SDS011;65120;59.304;18.294;2023-03-11T08:24:59;2.30;;;0.45;;
76310;SDS011;65120;59.304;18.294;2023-03-11T08:27:28;1.73;;;0.17;;
76310;SDS011;65120;59.304;18.294;2023-03-11T08:29:55;2.58;;;0.30;;
76310;SDS011;65120;59.304;18.294;2023-03-11T08:32:21;0.80;;;0.50;;
76310;SDS011;65120;59.304;18.294;2023-03-11T08:34:48;1.33;;;0.30;;
76310;SDS011;65120;59.304;18.294;2023-03-11T08:37:15;0.95;;;0.30;;
76310;SDS011;65120;59.304;18.294;2023-03-11T08:39:42;1.00;;;0.40;;
76310;SDS011;65120;59.304;18.294;2023-03-11T08:42:09;3.33;;;0.20;;
76310;SDS011;65120;59.304;18.294;2023-03-11T08:44:37;1.65;;;0.50;;
76310;SDS011;65120;59.304;18.294;2023-03-11T08:47:04;0.77;;;0.20;;
76310;SDS011;65120;59.304;18.294;2023-03-11T08:49:32;1.20;;;0.30;;
76310;SDS011;65120;59.304;18.294;2023-03-11T08:52:00;1.05;;;0.30;;
76310;SDS011;65120;59.304;18.294;2023-03-11T08:54:27;0.60;;;0.40;;
76310;SDS011;65120;59.304;18.294;2023-03-11T08:56:54;4.55;;;0.30;;
76310;SDS011;65120;59.304;18.294;2023-03-11T08:59:21;3.88;;;0.30;;
76310;SDS011;65120;59.304;18.294;2023-03-11T09:01:49;3.70;;;0.30;;
76310;SDS011;65120;59.304;18.294;2023-03-11T09:04:16;2.85;;;0.50;;
76310;SDS011;65120;59.304;18.294;2023-03-11T09:06:43;1.55;;;0.55;;
76310;SDS011;65120;59.304;18.294;2023-03-11T09:09:10;1.83;;;0.32;;
76310;SDS011;65120;59.304;18.294;2023-03-11T09:11:37;3.78;;;0.30;;
76310;SDS011;65120;59.304;18.294;2023-03-11T09:14:05;2.08;;;0.30;;
76310;SDS011;65120;59.304;18.294;2023-03-11T09:16:32;3.00;;;0.30;;
76310;SDS011;65120;59.304;18.294;2023-03-11T09:19:01;1.48;;;0.20;;
76310;SDS011;65120;59.304;18.294;2023-03-11T09:21:31;0.52;;;0.28;;
76310;SDS011;65120;59.304;18.294;2023-03-11T09:23:58;2.05;;;0.50;;
76310;SDS011;65120;59.304;18.294;2023-03-11T09:26:25;2.40;;;0.28;;
76310;SDS011;65120;59.304;18.294;2023-03-11T09:28:52;0.85;;;0.30;;
76310;SDS011;65120;59.304;18.294;2023-03-11T09:31:19;1.98;;;0.50;;
76310;SDS011;65120;59.304;18.294;2023-03-11T09:33:46;1.05;;;0.40;;
76310;SDS011;65120;59.304;18.294;2023-03-11T09:36:16;1.23;;;0.93;;
76310;SDS011;65120;59.304;18.294;2023-03-11T09:38:44;0.77;;;0.30;;
76310;SDS011;65120;59.304;18.294;2023-03-11T09:41:16;1.30;;;0.30;;
76310;SDS011;65120;59.304;18.294;2023-03-11T09:43:54;2.55;;;0.40;;
76310;SDS011;65120;59.304;18.294;2023-03-11T09:46:42;3.00;;;0.30;;
76310;SDS011;65120;59.304;18.294;2023-03-11T09:49:23;1.30;;;0.20;;
76310;SDS011;65120;59.304;18.294;2023-03-11T09:52:02;0.73;;;0.73;;
76310;SDS011;65120;59.304;18.294;2023-03-11T09:54:36;0.65;;;0.20;;
76310;SDS011;65120;59.304;18.294;2023-03-11T09:57:05;0.65;;;0.30;;
76310;SDS011;65120;59.304;18.294;2023-03-11T09:59:38;1.27;;;0.30;;
76310;SDS011;65120;59.304;18.294;2023-03-11T10:02:09;0.70;;;0.22;;
76310;SDS011;65120;59.304;18.294;2023-03-11T10:04:41;0.98;;;0.30;;
76310;SDS011;65120;59.304;18.294;2023-03-11T10:07:13;1.17;;;0.50;;
76310;SDS011;65120;59.304;18.294;2023-03-11T10:09:47;2.08;;;0.20;;
76310;SDS011;65120;59.304;18.294;2023-03-11T10:12:19;2.22;;;0.22;;
76310;SDS011;65120;59.304;18.294;2023-03-11T10:14:59;2.70;;;0.30;;
76310;SDS011;65120;59.304;18.294;2023-03-11T10:17:40;1.30;;;0.30;;
76310;SDS011;65120;59.304;18.294;2023-03-11T10:20:17;1.10;;;0.50;;
76310;SDS011;65120;59.304;18.294;2023-03-11T10:22:51;0.85;;;0.32;;
76310;SDS011;65120;59.304;18.294;2023-03-11T10:25:27;1.23;;;0.30;;
76310;SDS011;65120;59.304;18.294;2023-03-11T10:27:59;0.75;;;0.28;;
76310;SDS011;65120;59.304;18.294;2023-03-11T10:30:31;4.07;;;0.30;;
76310;SDS011;65120;59.304;18.294;2023-03-11T10:33:03;0.73;;;0.20;;
76310;SDS011;65120;59.304;18.294;2023-03-11T10:35:38;2.45;;;0.50;;
76310;SDS011;65120;59.304;18.294;2023-03-11T10:38:12;1.15;;;0.40;;
76310;SDS011;65120;59.304;18.294;2023-03-11T10:40:44;1.10;;;0.30;;
76310;SDS011;65120;59.304;18.294;2023-03-11T10:43:13;0.90;;;0.30;;
76310;SDS011;65120;59.304;18.294;2023-03-11T10:45:43;3.83;;;0.30;;
76310;SDS011;65120;59.304;18.294;2023-03-11T10:48:13;1.55;;;0.30;;
76310;SDS011;65120;59.304;18.294;2023-03-11T10:50:45;1.60;;;0.25;;
76310;SDS011;65120;59.304;18.294;2023-03-11T10:53:17;4.65;;;0.50;;
76310;SDS011;65120;59.304;18.294;2023-03-11T10:55:46;3.00;;;0.30;;
76310;SDS011;65120;59.304;18.294;2023-03-11T10:58:15;1.77;;;0.30;;
76310;SDS011;65120;59.304;18.294;2023-03-11T11:00:44;0.50;;;0.20;;
76310;SDS011;65120;59.304;18.294;2023-03-11T11:03:16;1.00;;;0.30;;
76310;SDS011;65120;59.304;18.294;2023-03-11T11:05:56;1.55;;;0.32;;
76310;SDS011;65120;59.304;18.294;2023-03-11T11:08:26;0.95;;;0.40;;
76310;SDS011;65120;59.304;18.294;2023-03-11T11:10:54;0.68;;;0.30;;
76310;SDS011;65120;59.304;18.294;2023-03-11T11:13:22;0.50;;;0.20;;
76310;SDS011;65120;59.304;18.294;2023-03-11T11:15:51;1.38;;;0.22;;
76310;SDS011;65120;59.304;18.294;2023-03-11T11:18:28;4.13;;;0.40;;
76310;SDS011;65120;59.304;18.294;2023-03-11T11:20:58;3.95;;;0.30;;
76310;SDS011;65120;59.304;18.294;2023-03-11T11:23:33;0.60;;;0.22;;
76310;SDS011;65120;59.304;18.294;2023-03-11T11:26:04;2.35;;;0.38;;
76310;SDS011;65120;59.304;18.294;2023-03-11T11:28:33;1.00;;;0.30;;
76310;SDS011;65120;59.304;18.294;2023-03-11T11:31:02;1.27;;;0.30;;
76310;SDS011;65120;59.304;18.294;2023-03-11T11:33:31;0.82;;;0.40;;
76310;SDS011;65120;59.304;18.294;2023-03-11T11:36:00;1.73;;;0.40;;
76310;SDS011;65120;59.304;18.294;2023-03-11T11:38:29;0.88;;;0.30;;
76310;SDS011;65120;59.304;18.294;2023-03-11T11:41:00;0.88;;;0.40;;
76310;SDS011;65120;59.304;18.294;2023-03-11T11:43:33;0.68;;;0.30;;
76310;SDS011;65120;59.304;18.294;2023-03-11T11:46:10;4.15;;;0.40;;
76310;SDS011;65120;59.304;18.294;2023-03-11T11:48:46;1.73;;;0.40;;
76310;SDS011;65120;59.304;18.294;2023-03-11T11:51:20;1.65;;;0.80;;
76310;SDS011;65120;59.304;18.294;2023-03-11T11:53:50;3.22;;;1.30;;
76310;SDS011;65120;59.304;18.294;2023-03-11T11:56:24;1.15;;;0.30;;
76310;SDS011;65120;59.304;18.294;2023-03-11T11:58:52;1.60;;;0.40;;
76310;SDS011;65120;59.304;18.294;2023-03-11T12:01:21;1.08;;;0.20;;
76310;SDS011;65120;59.304;18.294;2023-03-11T12:04:05;1.15;;;0.35;;
76310;SDS011;65120;59.304;18.294;2023-03-11T12:09:27;0.70;;;0.35;;
76310;SDS011;65120;59.304;18.294;2023-03-11T12:12:06;1.50;;;0.45;;
76310;SDS011;65120;59.304;18.294;2023-03-11T12:14:41;0.55;;;0.40;;
76310;SDS011;65120;59.304;18.294;2023-03-11T12:17:13;1.33;;;0.40;;
76310;SDS011;65120;59.304;18.294;2023-03-11T12:19:44;1.15;;;0.30;;
76310;SDS011;65120;59.304;18.294;2023-03-11T12:22:34;0.55;;;0.30;;
76310;SDS011;65120;59.304;18.294;2023-03-11T12:25:22;1.10;;;0.55;;
76310;SDS011;65120;59.304;18.294;2023-03-11T12:27:58;2.30;;;0.30;;
76310;SDS011;65120;59.304;18.294;2023-03-11T12:30:35;1.63;;;0.50;;
76310;SDS011;65120;59.304;18.294;2023-03-11T12:33:10;0.63;;;0.30;;
76310;SDS011;65120;59.304;18.294;2023-03-11T12:35:46;1.30;;;0.20;;
76310;SDS011;65120;59.304;18.294;2023-03-11T12:38:19;0.57;;;0.30;;
76310;SDS011;65120;59.304;18.294;2023-03-11T12:49:49;3.92;;;0.30;;
76310;SDS011;65120;59.304;18.294;2023-03-11T12:52:28;0.43;;;0.40;;
76310;SDS011;65120;59.304;18.294;2023-03-11T13:01:12;0.68;;;0.40;;
76310;SDS011;65120;59.304;18.294;2023-03-11T13:03:48;1.38;;;0.30;;
76310;SDS011;65120;59.304;18.294;2023-03-11T13:09:17;1.52;;;0.30;;
76310;SDS011;65120;59.304;18.294;2023-03-11T13:11:44;0.88;;;0.22;;
76310;SDS011;65120;59.304;18.294;2023-03-11T13:19:53;0.80;;;0.40;;
76310;SDS011;65120;59.304;18.294;2023-03-11T13:31:16;1.50;;;0.30;;
76310;SDS011;65120;59.304;18.294;2023-03-11T13:34:00;0.80;;;0.40;;
76310;SDS011;65120;59.304;18.294;2023-03-11T13:36:39;1.40;;;0.32;;
76310;SDS011;65120;59.304;18.294;2023-03-11T13:39:21;0.40;;;0.20;;
76310;SDS011;65120;59.304;18.294;2023-03-11T13:42:11;1.45;;;0.30;;
76310;SDS011;65120;59.304;18.294;2023-03-11T13:44:42;2.28;;;0.50;;
76310;SDS011;65120;59.304;18.294;2023-03-11T13:47:12;1.35;;;0.30;;
76310;SDS011;65120;59.304;18.294;2023-03-11T13:49:43;3.30;;;0.40;;
76310;SDS011;65120;59.304;18.294;2023-03-11T13:52:16;5.72;;;0.32;;
76310;SDS011;65120;59.304;18.294;2023-03-11T13:54:53;1.60;;;1.05;;
76310;SDS011;65120;59.304;18.294;2023-03-11T13:57:26;1.60;;;0.40;;
76310;SDS011;65120;59.304;18.294;2023-03-11T13:59:55;1.30;;;0.43;;
76310;SDS011;65120;59.304;18.294;2023-03-11T14:02:23;1.00;;;0.70;;
76310;SDS011;65120;59.304;18.294;2023-03-11T14:04:54;2.25;;;0.40;;
76310;SDS011;65120;59.304;18.294;2023-03-11T14:07:24;1.67;;;0.40;;
76310;SDS011;65120;59.304;18.294;2023-03-11T14:12:50;3.13;;;0.40;;
76310;SDS011;65120;59.304;18.294;2023-03-11T14:15:19;0.85;;;0.30;;
76310;SDS011;65120;59.304;18.294;2023-03-11T14:17:49;1.00;;;0.77;;
76310;SDS011;65120;59.304;18.294;2023-03-11T14:20:19;0.90;;;0.50;;
76310;SDS011;65120;59.304;18.294;2023-03-11T14:22:50;2.03;;;0.30;;
76310;SDS011;65120;59.304;18.294;2023-03-11T14:25:18;6.60;;;0.50;;
76310;SDS011;65120;59.304;18.294;2023-03-11T14:27:52;1.23;;;0.75;;
76310;SDS011;65120;59.304;18.294;2023-03-11T14:30:22;1.35;;;0.30;;
76310;SDS011;65120;59.304;18.294;2023-03-11T14:32:58;0.40;;;0.30;;
76310;SDS011;65120;59.304;18.294;2023-03-11T14:35:28;0.43;;;0.38;;
76310;SDS011;65120;59.304;18.294;2023-03-11T14:37:57;2.60;;;0.30;;
76310;SDS011;65120;59.304;18.294;2023-03-11T14:40:25;1.58;;;0.50;;
76310;SDS011;65120;59.304;18.294;2023-03-11T14:42:53;4.55;;;0.60;;
76310;SDS011;65120;59.304;18.294;2023-03-11T14:45:23;0.98;;;0.50;;
76310;SDS011;65120;59.304;18.294;2023-03-11T14:47:54;2.50;;;0.40;;
76310;SDS011;65120;59.304;18.294;2023-03-11T14:50:25;1.50;;;0.50;;
76310;SDS011;65120;59.304;18.294;2023-03-11T14:52:56;0.68;;;0.50;;
76310;SDS011;65120;59.304;18.294;2023-03-11T14:55:28;1.73;;;0.50;;
76310;SDS011;65120;59.304;18.294;2023-03-11T14:57:59;2.33;;;0.40;;
76310;SDS011;65120;59.304;18.294;2023-03-11T15:00:32;0.70;;;0.30;;
76310;SDS011;65120;59.304;18.294;2023-03-11T15:03:03;0.80;;;0.40;;
76310;SDS011;65120;59.304;18.294;2023-03-11T15:05:42;1.75;;;0.30;;
76310;SDS011;65120;59.304;18.294;2023-03-11T15:08:16;1.75;;;0.47;;
76310;SDS011;65120;59.304;18.294;2023-03-11T15:11:02;1.17;;;0.40;;
76310;SDS011;65120;59.304;18.294;2023-03-11T15:13:31;0.55;;;0.40;;
76310;SDS011;65120;59.304;18.294;2023-03-11T15:15:59;1.17;;;0.30;;
76310;SDS011;65120;59.304;18.294;2023-03-11T15:18:28;0.82;;;0.32;;
76310;SDS011;65120;59.304;18.294;2023-03-11T15:21:03;0.88;;;0.30;;
76310;SDS011;65120;59.304;18.294;2023-03-11T15:23:34;0.77;;;0.40;;
76310;SDS011;65120;59.304;18.294;2023-03-11T15:26:02;3.42;;;0.30;;
76310;SDS011;65120;59.304;18.294;2023-03-11T15:28:31;0.52;;;0.25;;